Abegall, Kentucky
Current Conditions -  °F | °C
As of 6:15 PM on Friday 31 Oct 2014 (Local Time) from KFGX Reporting Station
Drizzle Drizzle  
Wind Chill: 30°   Ceiling: 1500
Heat Index: 38°   Visibility: 10mi
Dew Point: 35°   Wind: 13mph
Humidity: 91%   Direction: 300°WNW
Pressure: 29.95"   Gusts: 21mph
Location:  38.6546°N, 83.9578°W
Report Text: KFGX 312215Z AUTO 30011G18KT 10SM -DZ BKN015 BKN019 OVC045 03/02 A2995 RMK AO2 T00310018
Loading
Personal Weather Stations






























Interactive Weather Map
Tropical Storm Tracking
New forecast layout! Learn more

10-Day Weather Forecast

Advertisements
Track Severe Weather on mobile